sensor_id;sensor_type;location;lat;lon;timestamp;P1;durP1;ratioP1;P2;durP2;ratioP2
16906;SDS011;8570;52.380;4.654;2023-07-20T00:00:43;1.88;;;1.00;;
16906;SDS011;8570;52.380;4.654;2023-07-20T00:05:46;5.25;;;4.30;;
16906;SDS011;8570;52.380;4.654;2023-07-20T00:10:48;3.10;;;2.40;;
16906;SDS011;8570;52.380;4.654;2023-07-20T00:15:51;2.67;;;1.10;;
16906;SDS011;8570;52.380;4.654;2023-07-20T00:20:54;4.10;;;1.30;;
16906;SDS011;8570;52.380;4.654;2023-07-20T00:25:56;2.72;;;0.90;;
16906;SDS011;8570;52.380;4.654;2023-07-20T00:30:59;1.85;;;1.05;;
16906;SDS011;8570;52.380;4.654;2023-07-20T00:36:02;1.40;;;1.10;;
16906;SDS011;8570;52.380;4.654;2023-07-20T00:41:07;2.97;;;2.25;;
16906;SDS011;8570;52.380;4.654;2023-07-20T00:46:09;3.30;;;2.40;;
16906;SDS011;8570;52.380;4.654;2023-07-20T00:51:12;3.80;;;2.13;;
16906;SDS011;8570;52.380;4.654;2023-07-20T00:56:14;4.05;;;1.27;;
16906;SDS011;8570;52.380;4.654;2023-07-20T01:01:17;2.10;;;1.50;;
16906;SDS011;8570;52.380;4.654;2023-07-20T01:06:24;2.45;;;1.50;;
16906;SDS011;8570;52.380;4.654;2023-07-20T01:11:32;3.42;;;1.65;;
16906;SDS011;8570;52.380;4.654;2023-07-20T01:16:39;3.67;;;1.75;;
16906;SDS011;8570;52.380;4.654;2023-07-20T01:21:45;3.40;;;1.83;;
16906;SDS011;8570;52.380;4.654;2023-07-20T01:26:58;2.88;;;2.00;;
16906;SDS011;8570;52.380;4.654;2023-07-20T01:32:13;3.03;;;1.88;;
16906;SDS011;8570;52.380;4.654;2023-07-20T01:37:18;3.15;;;2.03;;
16906;SDS011;8570;52.380;4.654;2023-07-20T01:42:25;3.30;;;2.00;;
16906;SDS011;8570;52.380;4.654;2023-07-20T01:47:29;2.20;;;2.00;;
16906;SDS011;8570;52.380;4.654;2023-07-20T01:52:31;5.80;;;2.25;;
16906;SDS011;8570;52.380;4.654;2023-07-20T01:57:33;2.97;;;2.05;;
16906;SDS011;8570;52.380;4.654;2023-07-20T02:02:36;3.50;;;2.20;;
16906;SDS011;8570;52.380;4.654;2023-07-20T02:07:38;2.25;;;1.92;;
16906;SDS011;8570;52.380;4.654;2023-07-20T02:12:40;7.18;;;2.40;;
16906;SDS011;8570;52.380;4.654;2023-07-20T02:17:43;4.40;;;2.20;;
16906;SDS011;8570;52.380;4.654;2023-07-20T02:22:45;2.72;;;2.33;;
16906;SDS011;8570;52.380;4.654;2023-07-20T02:27:47;2.40;;;2.03;;
16906;SDS011;8570;52.380;4.654;2023-07-20T02:32:50;2.42;;;2.22;;
16906;SDS011;8570;52.380;4.654;2023-07-20T02:37:52;2.33;;;2.03;;
16906;SDS011;8570;52.380;4.654;2023-07-20T02:42:55;3.08;;;2.00;;
16906;SDS011;8570;52.380;4.654;2023-07-20T02:47:58;2.60;;;1.85;;
16906;SDS011;8570;52.380;4.654;2023-07-20T02:53:01;2.22;;;1.90;;
16906;SDS011;8570;52.380;4.654;2023-07-20T02:58:03;3.40;;;2.10;;
16906;SDS011;8570;52.380;4.654;2023-07-20T03:03:06;2.78;;;1.92;;
16906;SDS011;8570;52.380;4.654;2023-07-20T03:08:09;4.00;;;1.98;;
16906;SDS011;8570;52.380;4.654;2023-07-20T03:13:11;3.42;;;1.95;;
16906;SDS011;8570;52.380;4.654;2023-07-20T03:18:15;2.35;;;1.75;;
16906;SDS011;8570;52.380;4.654;2023-07-20T03:23:17;3.45;;;2.10;;
16906;SDS011;8570;52.380;4.654;2023-07-20T03:28:19;2.20;;;1.85;;
16906;SDS011;8570;52.380;4.654;2023-07-20T03:33:26;1.90;;;1.70;;
16906;SDS011;8570;52.380;4.654;2023-07-20T03:38:29;3.85;;;1.83;;
16906;SDS011;8570;52.380;4.654;2023-07-20T03:43:30;2.03;;;1.70;;
16906;SDS011;8570;52.380;4.654;2023-07-20T03:48:34;3.70;;;2.03;;
16906;SDS011;8570;52.380;4.654;2023-07-20T03:53:36;3.50;;;1.60;;
16906;SDS011;8570;52.380;4.654;2023-07-20T03:58:39;2.63;;;1.40;;
16906;SDS011;8570;52.380;4.654;2023-07-20T04:03:42;2.75;;;1.48;;
16906;SDS011;8570;52.380;4.654;2023-07-20T04:08:44;3.38;;;1.42;;
16906;SDS011;8570;52.380;4.654;2023-07-20T04:13:47;3.60;;;1.05;;
16906;SDS011;8570;52.380;4.654;2023-07-20T04:18:50;3.10;;;1.52;;
16906;SDS011;8570;52.380;4.654;2023-07-20T04:23:52;2.58;;;1.90;;
16906;SDS011;8570;52.380;4.654;2023-07-20T04:28:54;2.72;;;1.70;;
16906;SDS011;8570;52.380;4.654;2023-07-20T04:33:57;2.33;;;1.98;;
16906;SDS011;8570;52.380;4.654;2023-07-20T04:38:59;2.35;;;1.67;;
16906;SDS011;8570;52.380;4.654;2023-07-20T04:44:01;3.35;;;2.10;;
16906;SDS011;8570;52.380;4.654;2023-07-20T04:49:05;3.35;;;1.80;;
16906;SDS011;8570;52.380;4.654;2023-07-20T04:54:07;2.80;;;2.05;;
16906;SDS011;8570;52.380;4.654;2023-07-20T04:59:09;4.13;;;2.10;;
16906;SDS011;8570;52.380;4.654;2023-07-20T05:04:12;2.45;;;2.20;;
16906;SDS011;8570;52.380;4.654;2023-07-20T05:09:14;2.80;;;2.20;;
16906;SDS011;8570;52.380;4.654;2023-07-20T05:14:16;4.15;;;2.42;;
16906;SDS011;8570;52.380;4.654;2023-07-20T05:19:19;2.72;;;2.20;;
16906;SDS011;8570;52.380;4.654;2023-07-20T05:24:21;2.88;;;2.50;;
16906;SDS011;8570;52.380;4.654;2023-07-20T05:29:23;3.88;;;2.38;;
16906;SDS011;8570;52.380;4.654;2023-07-20T05:34:26;3.30;;;2.45;;
16906;SDS011;8570;52.380;4.654;2023-07-20T05:39:28;3.53;;;2.40;;
16906;SDS011;8570;52.380;4.654;2023-07-20T05:44:31;4.03;;;2.90;;
16906;SDS011;8570;52.380;4.654;2023-07-20T05:49:35;2.60;;;2.22;;
16906;SDS011;8570;52.380;4.654;2023-07-20T05:54:37;3.83;;;2.28;;
16906;SDS011;8570;52.380;4.654;2023-07-20T05:59:39;1.67;;;1.38;;
16906;SDS011;8570;52.380;4.654;2023-07-20T06:04:45;2.00;;;1.65;;
16906;SDS011;8570;52.380;4.654;2023-07-20T06:09:47;1.75;;;1.20;;
16906;SDS011;8570;52.380;4.654;2023-07-20T06:14:49;4.55;;;1.20;;
16906;SDS011;8570;52.380;4.654;2023-07-20T06:19:52;2.15;;;1.55;;
16906;SDS011;8570;52.380;4.654;2023-07-20T06:24:54;4.00;;;1.48;;
16906;SDS011;8570;52.380;4.654;2023-07-20T06:29:56;2.58;;;1.58;;
16906;SDS011;8570;52.380;4.654;2023-07-20T06:34:59;2.92;;;1.40;;
16906;SDS011;8570;52.380;4.654;2023-07-20T06:40:02;2.80;;;1.45;;
16906;SDS011;8570;52.380;4.654;2023-07-20T06:45:05;3.40;;;0.98;;
16906;SDS011;8570;52.380;4.654;2023-07-20T06:50:09;1.40;;;0.82;;
16906;SDS011;8570;52.380;4.654;2023-07-20T06:55:11;2.00;;;1.10;;
16906;SDS011;8570;52.380;4.654;2023-07-20T07:00:14;2.75;;;1.30;;
16906;SDS011;8570;52.380;4.654;2023-07-20T07:05:17;2.92;;;1.10;;
16906;SDS011;8570;52.380;4.654;2023-07-20T07:10:19;2.15;;;1.10;;
16906;SDS011;8570;52.380;4.654;2023-07-20T07:15:21;2.08;;;1.02;;
16906;SDS011;8570;52.380;4.654;2023-07-20T07:20:24;1.95;;;1.05;;
16906;SDS011;8570;52.380;4.654;2023-07-20T07:25:27;2.80;;;1.30;;
16906;SDS011;8570;52.380;4.654;2023-07-20T07:30:35;2.05;;;1.42;;
16906;SDS011;8570;52.380;4.654;2023-07-20T07:35:38;1.88;;;1.00;;
16906;SDS011;8570;52.380;4.654;2023-07-20T07:40:40;1.48;;;0.93;;
16906;SDS011;8570;52.380;4.654;2023-07-20T07:45:43;3.00;;;1.08;;
16906;SDS011;8570;52.380;4.654;2023-07-20T07:50:49;2.38;;;0.98;;
16906;SDS011;8570;52.380;4.654;2023-07-20T07:55:51;1.35;;;0.80;;
16906;SDS011;8570;52.380;4.654;2023-07-20T08:00:53;3.53;;;1.20;;
16906;SDS011;8570;52.380;4.654;2023-07-20T08:05:56;1.48;;;0.82;;
16906;SDS011;8570;52.380;4.654;2023-07-20T08:10:58;1.50;;;1.10;;
16906;SDS011;8570;52.380;4.654;2023-07-20T08:16:00;2.47;;;0.82;;
16906;SDS011;8570;52.380;4.654;2023-07-20T08:21:05;1.10;;;0.80;;
16906;SDS011;8570;52.380;4.654;2023-07-20T08:26:12;0.77;;;0.77;;
16906;SDS011;8570;52.380;4.654;2023-07-20T08:31:14;1.95;;;0.70;;
16906;SDS011;8570;52.380;4.654;2023-07-20T08:36:17;1.85;;;0.73;;
16906;SDS011;8570;52.380;4.654;2023-07-20T08:41:19;1.23;;;0.63;;
16906;SDS011;8570;52.380;4.654;2023-07-20T08:46:21;3.05;;;0.63;;
16906;SDS011;8570;52.380;4.654;2023-07-20T08:51:26;1.90;;;0.60;;
16906;SDS011;8570;52.380;4.654;2023-07-20T08:56:29;2.95;;;0.70;;
16906;SDS011;8570;52.380;4.654;2023-07-20T09:01:35;1.45;;;0.70;;
16906;SDS011;8570;52.380;4.654;2023-07-20T09:06:41;2.13;;;0.70;;
16906;SDS011;8570;52.380;4.654;2023-07-20T09:11:43;1.02;;;0.68;;
16906;SDS011;8570;52.380;4.654;2023-07-20T09:16:50;0.73;;;0.50;;
16906;SDS011;8570;52.380;4.654;2023-07-20T09:21:55;1.30;;;0.63;;
16906;SDS011;8570;52.380;4.654;2023-07-20T09:26:57;2.55;;;0.73;;
16906;SDS011;8570;52.380;4.654;2023-07-20T09:32:04;1.63;;;0.90;;
16906;SDS011;8570;52.380;4.654;2023-07-20T09:37:08;1.10;;;0.77;;
16906;SDS011;8570;52.380;4.654;2023-07-20T09:42:10;1.98;;;0.68;;
16906;SDS011;8570;52.380;4.654;2023-07-20T09:47:21;2.05;;;0.80;;
16906;SDS011;8570;52.380;4.654;2023-07-20T09:52:24;7.15;;;1.20;;
16906;SDS011;8570;52.380;4.654;2023-07-20T09:57:27;1.13;;;0.60;;
16906;SDS011;8570;52.380;4.654;2023-07-20T10:02:30;1.10;;;0.90;;
16906;SDS011;8570;52.380;4.654;2023-07-20T10:07:35;2.00;;;0.70;;
16906;SDS011;8570;52.380;4.654;2023-07-20T10:12:40;3.30;;;0.90;;
16906;SDS011;8570;52.380;4.654;2023-07-20T10:17:46;0.80;;;0.65;;
16906;SDS011;8570;52.380;4.654;2023-07-20T10:23:02;2.08;;;0.70;;
16906;SDS011;8570;52.380;4.654;2023-07-20T10:28:05;2.00;;;0.90;;
16906;SDS011;8570;52.380;4.654;2023-07-20T10:33:08;1.42;;;0.80;;
16906;SDS011;8570;52.380;4.654;2023-07-20T10:38:11;1.85;;;0.73;;
16906;SDS011;8570;52.380;4.654;2023-07-20T10:43:13;1.73;;;0.80;;
16906;SDS011;8570;52.380;4.654;2023-07-20T10:48:21;1.30;;;0.63;;
16906;SDS011;8570;52.380;4.654;2023-07-20T10:53:26;1.65;;;0.70;;
16906;SDS011;8570;52.380;4.654;2023-07-20T10:58:32;1.23;;;0.90;;
16906;SDS011;8570;52.380;4.654;2023-07-20T11:03:38;0.90;;;0.80;;
16906;SDS011;8570;52.380;4.654;2023-07-20T11:08:42;1.17;;;0.70;;
16906;SDS011;8570;52.380;4.654;2023-07-20T11:13:53;1.73;;;0.70;;
16906;SDS011;8570;52.380;4.654;2023-07-20T11:18:56;6.93;;;0.70;;
16906;SDS011;8570;52.380;4.654;2023-07-20T11:24:07;3.35;;;0.80;;
16906;SDS011;8570;52.380;4.654;2023-07-20T11:29:10;1.95;;;0.70;;
16906;SDS011;8570;52.380;4.654;2023-07-20T11:34:15;3.22;;;0.90;;
16906;SDS011;8570;52.380;4.654;2023-07-20T11:39:20;1.35;;;0.75;;
16906;SDS011;8570;52.380;4.654;2023-07-20T11:44:25;0.73;;;0.70;;
16906;SDS011;8570;52.380;4.654;2023-07-20T11:49:28;1.25;;;0.80;;
16906;SDS011;8570;52.380;4.654;2023-07-20T11:54:32;2.40;;;0.70;;
16906;SDS011;8570;52.380;4.654;2023-07-20T11:59:35;0.82;;;0.70;;
16906;SDS011;8570;52.380;4.654;2023-07-20T12:04:37;1.85;;;0.65;;
16906;SDS011;8570;52.380;4.654;2023-07-20T12:09:41;0.90;;;0.80;;
16906;SDS011;8570;52.380;4.654;2023-07-20T12:14:43;1.25;;;0.70;;
16906;SDS011;8570;52.380;4.654;2023-07-20T12:19:45;0.82;;;0.70;;
16906;SDS011;8570;52.380;4.654;2023-07-20T12:24:49;1.52;;;0.80;;
16906;SDS011;8570;52.380;4.654;2023-07-20T12:29:53;1.05;;;0.73;;
16906;SDS011;8570;52.380;4.654;2023-07-20T12:34:58;1.63;;;0.90;;
16906;SDS011;8570;52.380;4.654;2023-07-20T12:40:02;1.25;;;0.60;;
16906;SDS011;8570;52.380;4.654;2023-07-20T12:45:05;1.35;;;0.52;;
16906;SDS011;8570;52.380;4.654;2023-07-20T12:50:08;2.75;;;1.20;;
16906;SDS011;8570;52.380;4.654;2023-07-20T12:55:12;2.15;;;0.77;;
16906;SDS011;8570;52.380;4.654;2023-07-20T13:00:14;1.23;;;0.77;;
16906;SDS011;8570;52.380;4.654;2023-07-20T13:05:21;1.85;;;0.73;;
16906;SDS011;8570;52.380;4.654;2023-07-20T13:10:25;1.52;;;0.80;;
16906;SDS011;8570;52.380;4.654;2023-07-20T13:15:29;0.65;;;0.60;;
16906;SDS011;8570;52.380;4.654;2023-07-20T13:20:32;0.80;;;0.47;;
16906;SDS011;8570;52.380;4.654;2023-07-20T13:25:36;1.35;;;0.90;;
16906;SDS011;8570;52.380;4.654;2023-07-20T13:30:38;2.13;;;0.70;;
16906;SDS011;8570;52.380;4.654;2023-07-20T13:35:40;1.83;;;1.00;;
16906;SDS011;8570;52.380;4.654;2023-07-20T13:40:43;1.10;;;0.80;;
16906;SDS011;8570;52.380;4.654;2023-07-20T13:45:45;2.45;;;0.80;;
16906;SDS011;8570;52.380;4.654;2023-07-20T13:50:47;0.98;;;0.77;;
16906;SDS011;8570;52.380;4.654;2023-07-20T13:55:52;0.98;;;0.70;;
16906;SDS011;8570;52.380;4.654;2023-07-20T14:00:54;0.70;;;0.70;;
16906;SDS011;8570;52.380;4.654;2023-07-20T14:05:57;1.50;;;0.70;;
16906;SDS011;8570;52.380;4.654;2023-07-20T14:11:03;0.93;;;0.80;;
16906;SDS011;8570;52.380;4.654;2023-07-20T14:16:06;0.82;;;0.70;;
16906;SDS011;8570;52.380;4.654;2023-07-20T14:21:08;0.93;;;0.80;;
16906;SDS011;8570;52.380;4.654;2023-07-20T14:26:12;1.08;;;0.88;;
16906;SDS011;8570;52.380;4.654;2023-07-20T14:31:16;1.73;;;0.77;;
16906;SDS011;8570;52.380;4.654;2023-07-20T14:36:21;3.38;;;0.73;;
16906;SDS011;8570;52.380;4.654;2023-07-20T14:41:29;2.47;;;0.70;;
16906;SDS011;8570;52.380;4.654;2023-07-20T14:46:34;1.00;;;0.70;;
16906;SDS011;8570;52.380;4.654;2023-07-20T14:51:39;1.15;;;0.85;;
16906;SDS011;8570;52.380;4.654;2023-07-20T14:56:51;3.55;;;0.70;;
16906;SDS011;8570;52.380;4.654;2023-07-20T15:01:53;0.90;;;0.80;;
16906;SDS011;8570;52.380;4.654;2023-07-20T15:06:55;0.82;;;0.70;;
16906;SDS011;8570;52.380;4.654;2023-07-20T15:11:58;0.70;;;0.68;;
16906;SDS011;8570;52.380;4.654;2023-07-20T15:17:01;0.68;;;0.60;;
16906;SDS011;8570;52.380;4.654;2023-07-20T15:22:03;1.30;;;0.70;;
16906;SDS011;8570;52.380;4.654;2023-07-20T15:27:08;1.15;;;0.80;;
16906;SDS011;8570;52.380;4.654;2023-07-20T15:32:10;1.10;;;0.60;;
16906;SDS011;8570;52.380;4.654;2023-07-20T15:37:12;1.58;;;1.02;;
16906;SDS011;8570;52.380;4.654;2023-07-20T15:42:16;0.60;;;0.60;;
16906;SDS011;8570;52.380;4.654;2023-07-20T15:47:17;1.67;;;0.90;;
16906;SDS011;8570;52.380;4.654;2023-07-20T15:52:19;1.42;;;0.75;;
16906;SDS011;8570;52.380;4.654;2023-07-20T15:57:26;2.25;;;1.10;;
16906;SDS011;8570;52.380;4.654;2023-07-20T16:02:31;1.42;;;0.70;;
16906;SDS011;8570;52.380;4.654;2023-07-20T16:07:35;2.35;;;1.00;;
16906;SDS011;8570;52.380;4.654;2023-07-20T16:12:44;1.10;;;0.70;;
16906;SDS011;8570;52.380;4.654;2023-07-20T16:17:49;2.00;;;1.27;;
16906;SDS011;8570;52.380;4.654;2023-07-20T16:22:56;1.00;;;0.70;;
16906;SDS011;8570;52.380;4.654;2023-07-20T16:28:06;1.48;;;0.90;;
16906;SDS011;8570;52.380;4.654;2023-07-20T16:33:09;2.25;;;0.70;;
16906;SDS011;8570;52.380;4.654;2023-07-20T16:38:14;2.50;;;0.77;;
16906;SDS011;8570;52.380;4.654;2023-07-20T16:43:19;4.30;;;0.90;;
16906;SDS011;8570;52.380;4.654;2023-07-20T16:48:20;1.00;;;0.90;;
16906;SDS011;8570;52.380;4.654;2023-07-20T16:53:23;3.17;;;1.30;;
16906;SDS011;8570;52.380;4.654;2023-07-20T16:58:26;5.97;;;0.75;;
16906;SDS011;8570;52.380;4.654;2023-07-20T17:03:35;3.47;;;2.38;;
16906;SDS011;8570;52.380;4.654;2023-07-20T17:08:37;1.55;;;0.75;;
16906;SDS011;8570;52.380;4.654;2023-07-20T17:13:40;0.77;;;0.70;;
16906;SDS011;8570;52.380;4.654;2023-07-20T17:18:42;1.67;;;0.82;;
16906;SDS011;8570;52.380;4.654;2023-07-20T17:23:48;2.10;;;0.57;;
16906;SDS011;8570;52.380;4.654;2023-07-20T17:28:52;1.27;;;0.82;;
16906;SDS011;8570;52.380;4.654;2023-07-20T17:33:54;0.88;;;0.70;;
16906;SDS011;8570;52.380;4.654;2023-07-20T17:38:56;0.60;;;0.60;;
16906;SDS011;8570;52.380;4.654;2023-07-20T17:43:59;1.55;;;0.60;;
16906;SDS011;8570;52.380;4.654;2023-07-20T17:49:01;1.75;;;0.70;;
16906;SDS011;8570;52.380;4.654;2023-07-20T17:54:03;1.85;;;1.40;;
16906;SDS011;8570;52.380;4.654;2023-07-20T17:59:07;1.55;;;0.90;;
16906;SDS011;8570;52.380;4.654;2023-07-20T18:04:09;1.52;;;0.90;;
16906;SDS011;8570;52.380;4.654;2023-07-20T18:09:12;0.90;;;0.80;;
16906;SDS011;8570;52.380;4.654;2023-07-20T18:14:15;1.35;;;0.90;;
16906;SDS011;8570;52.380;4.654;2023-07-20T18:19:17;0.82;;;0.75;;
16906;SDS011;8570;52.380;4.654;2023-07-20T18:24:19;1.95;;;1.00;;
16906;SDS011;8570;52.380;4.654;2023-07-20T18:29:22;1.17;;;1.08;;
16906;SDS011;8570;52.380;4.654;2023-07-20T18:34:24;1.42;;;1.00;;
16906;SDS011;8570;52.380;4.654;2023-07-20T18:39:26;1.40;;;1.00;;
16906;SDS011;8570;52.380;4.654;2023-07-20T18:44:30;1.63;;;0.90;;
16906;SDS011;8570;52.380;4.654;2023-07-20T18:49:33;1.38;;;0.90;;
16906;SDS011;8570;52.380;4.654;2023-07-20T18:54:37;1.25;;;0.85;;
16906;SDS011;8570;52.380;4.654;2023-07-20T18:59:40;1.73;;;1.08;;
16906;SDS011;8570;52.380;4.654;2023-07-20T19:04:42;4.13;;;1.42;;
16906;SDS011;8570;52.380;4.654;2023-07-20T19:09:45;2.75;;;1.00;;
16906;SDS011;8570;52.380;4.654;2023-07-20T19:14:48;1.42;;;0.80;;
16906;SDS011;8570;52.380;4.654;2023-07-20T19:19:50;3.47;;;1.20;;
16906;SDS011;8570;52.380;4.654;2023-07-20T19:24:56;4.15;;;1.20;;
16906;SDS011;8570;52.380;4.654;2023-07-20T19:35:31;5.03;;;1.23;;
16906;SDS011;8570;52.380;4.654;2023-07-20T19:46:23;1.63;;;1.00;;
16906;SDS011;8570;52.380;4.654;2023-07-20T19:51:26;0.70;;;0.70;;
16906;SDS011;8570;52.380;4.654;2023-07-20T19:56:28;1.20;;;1.00;;
16906;SDS011;8570;52.380;4.654;2023-07-20T20:01:32;1.52;;;1.13;;
16906;SDS011;8570;52.380;4.654;2023-07-20T20:06:35;1.95;;;1.00;;
16906;SDS011;8570;52.380;4.654;2023-07-20T20:11:38;2.00;;;1.30;;
16906;SDS011;8570;52.380;4.654;2023-07-20T20:16:45;5.07;;;1.38;;
16906;SDS011;8570;52.380;4.654;2023-07-20T20:21:47;2.60;;;1.38;;
16906;SDS011;8570;52.380;4.654;2023-07-20T20:26:51;1.33;;;1.20;;
16906;SDS011;8570;52.380;4.654;2023-07-20T20:31:55;2.42;;;1.30;;
16906;SDS011;8570;52.380;4.654;2023-07-20T20:36:57;2.28;;;1.65;;
16906;SDS011;8570;52.380;4.654;2023-07-20T20:42:03;3.97;;;1.80;;
16906;SDS011;8570;52.380;4.654;2023-07-20T20:47:11;1.88;;;1.40;;
16906;SDS011;8570;52.380;4.654;2023-07-20T20:52:14;2.25;;;1.45;;
16906;SDS011;8570;52.380;4.654;2023-07-20T20:57:17;3.55;;;1.80;;
16906;SDS011;8570;52.380;4.654;2023-07-20T21:02:20;4.45;;;1.48;;
16906;SDS011;8570;52.380;4.654;2023-07-20T21:07:22;2.10;;;1.30;;
16906;SDS011;8570;52.380;4.654;2023-07-20T21:12:26;3.92;;;1.42;;
16906;SDS011;8570;52.380;4.654;2023-07-20T21:17:29;2.55;;;1.40;;
16906;SDS011;8570;52.380;4.654;2023-07-20T21:22:34;1.42;;;1.20;;
16906;SDS011;8570;52.380;4.654;2023-07-20T21:27:38;1.25;;;1.13;;
16906;SDS011;8570;52.380;4.654;2023-07-20T21:32:43;4.25;;;2.50;;
16906;SDS011;8570;52.380;4.654;2023-07-20T21:37:46;2.78;;;1.77;;
16906;SDS011;8570;52.380;4.654;2023-07-20T21:42:48;2.15;;;1.73;;
16906;SDS011;8570;52.380;4.654;2023-07-20T21:47:55;4.13;;;1.70;;
16906;SDS011;8570;52.380;4.654;2023-07-20T21:52:57;1.88;;;1.42;;
16906;SDS011;8570;52.380;4.654;2023-07-20T21:58:01;3.55;;;2.35;;
16906;SDS011;8570;52.380;4.654;2023-07-20T22:03:05;2.85;;;1.60;;
16906;SDS011;8570;52.380;4.654;2023-07-20T22:08:09;2.10;;;1.50;;
16906;SDS011;8570;52.380;4.654;2023-07-20T22:13:11;3.53;;;1.42;;
16906;SDS011;8570;52.380;4.654;2023-07-20T22:18:14;2.05;;;1.08;;
16906;SDS011;8570;52.380;4.654;2023-07-20T22:23:16;2.90;;;1.50;;
16906;SDS011;8570;52.380;4.654;2023-07-20T22:28:19;2.28;;;1.30;;
16906;SDS011;8570;52.380;4.654;2023-07-20T22:33:23;2.35;;;1.20;;
16906;SDS011;8570;52.380;4.654;2023-07-20T22:38:26;1.20;;;1.10;;
16906;SDS011;8570;52.380;4.654;2023-07-20T22:43:28;1.27;;;1.13;;
16906;SDS011;8570;52.380;4.654;2023-07-20T22:48:32;1.60;;;1.40;;
16906;SDS011;8570;52.380;4.654;2023-07-20T22:53:34;1.63;;;1.50;;
16906;SDS011;8570;52.380;4.654;2023-07-20T22:58:36;1.65;;;1.30;;
16906;SDS011;8570;52.380;4.654;2023-07-20T23:03:39;2.40;;;1.17;;
16906;SDS011;8570;52.380;4.654;2023-07-20T23:08:44;1.50;;;1.20;;
16906;SDS011;8570;52.380;4.654;2023-07-20T23:13:47;4.72;;;1.58;;
16906;SDS011;8570;52.380;4.654;2023-07-20T23:18:52;1.77;;;1.40;;
16906;SDS011;8570;52.380;4.654;2023-07-20T23:23:54;2.33;;;1.70;;
16906;SDS011;8570;52.380;4.654;2023-07-20T23:28:56;1.85;;;1.55;;
16906;SDS011;8570;52.380;4.654;2023-07-20T23:34:08;1.77;;;1.67;;
16906;SDS011;8570;52.380;4.654;2023-07-20T23:39:15;3.47;;;2.25;;
16906;SDS011;8570;52.380;4.654;2023-07-20T23:44:17;2.40;;;2.10;;
16906;SDS011;8570;52.380;4.654;2023-07-20T23:49:20;3.15;;;1.90;;
16906;SDS011;8570;52.380;4.654;2023-07-20T23:54:23;3.25;;;1.50;;
16906;SDS011;8570;52.380;4.654;2023-07-20T23:59:26;2.33;;;1.52;;
